Nearby METAR Reports

 

KCMA - Camarillo, California, USA
Distance from station: WSW 4mi, 7km
Updated: Fri, 05-Jun-2020 6:55pm PDT
Overcast
Overcast
 Wind from W
Wind: W 6 mph , 9 km/h
Temperature: 72°F , 22°C
Dew Point: 52°F , 11°C
Humidity: 50%
Barometer: 29.82 inHg , 1009.8 hPa
Clouds: Overcast
Visibility: 10 miles , 16 km
Cloud details: Partly cloudy 4000 ft
Overcast 5500 ft
2020/06/06 01:55 KCMA 060155Z 28005KT 10SM SCT040 OVC055 22/11 A2982 RMK AO2 SLP104 T02170111
KNTD - Point Mugu Nas, California, USA
Distance from station: SSW 9mi, 15km
Updated: Fri, 05-Jun-2020 6:52pm PDT
Partly cloudy
Partly cloudy
 Wind from WSW
Wind: WSW 7 mph , 11 km/h
Temperature: 66°F , 19°C
Dew Point: 55°F , 13°C
Humidity: 68%
Barometer: 29.83 inHg , 1010.2 hPa
Clouds: Partly cloudy
Visibility: 10 miles , 16 km
Cloud details: Few Clouds 3500 ft
Partly cloudy 5500 ft
Partly cloudy 8500 ft
2020/06/06 01:52 KNTD 060152Z 25006KT 10SM FEW035 SCT055 SCT085 19/13 A2983 RMK AO2 SLP102 T01940128 $
 
KOXR - Oxnard, California, USA
Distance from station: WSW 10mi, 16km
Updated: Fri, 05-Jun-2020 6:51pm PDT
Overcast
Overcast
 Wind from W
Wind: W 8 mph , 13 km/h
Temperature: 66°F , 19°C
Dew Point: 55°F , 13°C
Humidity: 68%
Barometer: 29.82 inHg , 1009.8 hPa
Clouds: Overcast
Visibility: 10 miles , 16 km
Cloud details: Overcast 5500 ft
2020/06/06 01:51 KOXR 060151Z 27007KT 10SM OVC055 19/13 A2982 RMK AO2 SLP096 T01940128
KVNY - Van Nuys, California, USA
Distance from station: E 31mi, 50km
Updated: Fri, 05-Jun-2020 7:07pm PDT
Overcast
Overcast
 Wind from WNW
Wind: WNW 6 mph , 9 km/h
Temperature: 68°F , 20°C
Dew Point: 54°F , 12°C
Humidity: 60%
Barometer: 29.82 inHg , 1009.8 hPa
Clouds: Overcast
Visibility: 10 miles , 16 km
Cloud details: Mostly cloudy 2800 ft
Overcast 3500 ft
2020/06/06 02:07 KVNY 060207Z 30005KT 10SM BKN028 OVC035 20/12 A2982 RMK AO2 T02000122
 
KWHP - La / Whiteman, California, USA
Distance from station: E 35mi, 56km
Updated: Fri, 05-Jun-2020 6:50pm PDT
Overcast
Overcast
 Wind from SE
Wind: SE 5 mph , 7 km/h
Temperature: 66°F , 19°C
Dew Point: 52°F , 11°C
Humidity: 60%
Barometer: 29.86 inHg , 1011.2 hPa
Clouds: Overcast
Visibility: 10 miles , 16 km
Cloud details: Overcast 4000 ft
2020/06/06 01:50 KWHP 060150Z 13004KT 10SM OVC040 19/11 A2986
KSMO - Santa Monica, California, USA
Distance from station: ESE 36mi, 58km
Updated: Fri, 05-Jun-2020 6:51pm PDT
Overcast
Overcast
 Wind from SW
Wind: SW 6 mph , 9 km/h
Temperature: 66°F , 19°C
Dew Point: 55°F , 13°C
Humidity: 68%
Barometer: 29.83 inHg , 1010.2 hPa
Clouds: Overcast
Visibility: 10 miles , 16 km
Cloud details: Overcast 5500 ft
2020/06/06 01:51 KSMO 060151Z AUTO 22005KT 10SM OVC055 19/13 A2983 RMK AO2 SLP098 T01940128
 
KBUR - Burbank, California, USA
Distance from station: E 38mi, 61km
Updated: Fri, 05-Jun-2020 6:53pm PDT
Overcast
Overcast
 Wind from S
Wind: S 7 mph , 11 km/h
Temperature: 66°F , 19°C
Dew Point: 52°F , 11°C
Humidity: 60%
Barometer: 29.82 inHg , 1009.8 hPa
Clouds: Overcast
Visibility: 10 miles , 16 km
Cloud details: Partly cloudy 4100 ft
Overcast 5000 ft
2020/06/06 01:53 KBUR 060153Z 18006KT 10SM SCT041 OVC050 19/11 A2982 RMK AO2 SLP089 T01890111
KSDB - Sandberg, California, USA
Distance from station: NNE 40mi, 64km
Updated: Fri, 05-Jun-2020 6:53pm PDT

 Wind from SSW
Wind: SSW 14 mph , 22 km/h, Gust: 23 mph , 37 km/h
Temperature: 52°F , 11°C
Dew Point: 48°F , 9°C
Humidity: 88%
Barometer: 29.88 inHg , 1011.9 hPa
Visibility: 10 miles , 16 km
2020/06/06 01:53 KSDB 060153Z AUTO 20012G20KT 10SM 11/09 A2988 RMK AO2 SLP086 T01110089 $
 
KLAX - Los Angeles, California, USA
Distance from station: ESE 42mi, 68km
Updated: Fri, 05-Jun-2020 6:53pm PDT
Overcast
Overcast
 Wind from SW
Wind: SW 9 mph , 15 km/h
Temperature: 66°F , 19°C
Dew Point: 54°F , 12°C
Humidity: 64%
Barometer: 29.83 inHg , 1010.2 hPa
Clouds: Overcast
Visibility: 10 miles , 16 km
Cloud details: Mostly cloudy 4200 ft
Overcast 5000 ft
2020/06/06 01:53 KLAX 060153Z 23008KT 10SM BKN042 OVC050 19/12 A2983 RMK AO2 SLP098 T01890122
KCQT - Los Angeles, California, USA
Distance from station: ESE 45mi, 73km
Updated: Fri, 05-Jun-2020 6:52pm PDT
Overcast
Overcast
 Wind from W
Wind: W 3 mph , 6 km/h
Temperature: 70°F , 21°C
Dew Point: 54°F , 12°C
Humidity: 57%
Barometer: 29.82 inHg , 1009.8 hPa
Clouds: Overcast
Visibility: 10 miles , 16 km
Cloud details: Overcast 5000 ft
2020/06/06 01:52 KCQT 060152Z AUTO 26003KT 10SM OVC050 21/12 A2982 RMK AO2 SLP097 T02060117
 
KHHR - Hawthorne, California, USA
Distance from station: ESE 45mi, 73km
Updated: Fri, 05-Jun-2020 6:53pm PDT
Overcast
Overcast
 Wind from W
Wind: W 9 mph , 15 km/h
Temperature: 66°F , 19°C
Dew Point: 54°F , 12°C
Humidity: 64%
Barometer: 29.83 inHg , 1010.2 hPa
Clouds: Overcast
Visibility: 10 miles , 16 km
Cloud details: Overcast 5500 ft
2020/06/06 01:53 KHHR 060153Z 26008KT 10SM OVC055 19/12 A2983 RMK AO2 SLP100 T01940117
KSBA - Santa Barbara, California, USA
Distance from station: WNW 49mi, 79km
Updated: Fri, 05-Jun-2020 6:53pm PDT
Overcast
Overcast
 Wind from WSW
Wind: WSW 9 mph , 15 km/h
Temperature: 64°F , 18°C
Dew Point: 55°F , 13°C
Humidity: 73%
Barometer: 29.82 inHg , 1009.8 hPa
Clouds: Overcast
Visibility: 9 miles , 14 km
Cloud details: Mostly cloudy 2800 ft
Overcast 4700 ft
2020/06/06 01:53 KSBA 060153Z 25008KT 9SM BKN028 OVC047 18/13 A2982 RMK AO2 SLP097 T01830133